Time;durP1;ratioP1;P1;durP2;ratioP2;P2;SDS_P1;SDS_P2;PMS_P1;PMS_P2;Temp;Humidity;BMP_temperature;BMP_pressure;BME280_temperature;BME280_humidity;BME280_pressure;Samples;Min_cycle;Max_cycle;Signal;HPM_P1;HPM_P2
2024/02/06 00:02:00;;;;;;;1.30;0.80;;;;;;;10.27;100.00;99980.53;4999826;28;20062;-62
2024/02/06 00:04:28;;;;;;;0.45;0.40;;;;;;;10.27;100.00;99983.31;4983089;28;20043;-62
2024/02/06 00:06:55;;;;;;;1.35;0.60;;;;;;;10.28;100.00;99982.16;4986733;28;20050;-64
2024/02/06 00:09:23;;;;;;;0.63;0.63;;;;;;;10.27;100.00;99990.84;4987217;28;20587;-63
2024/02/06 00:11:50;;;;;;;1.08;0.80;;;;;;;10.29;100.00;99980.19;4986026;28;20571;-63
2024/02/06 00:14:19;;;;;;;1.27;0.60;;;;;;;10.29;100.00;99981.00;4987101;28;20060;-63
2024/02/06 00:16:47;;;;;;;1.05;0.70;;;;;;;10.31;100.00;99975.09;4969023;28;20057;-63
2024/02/06 00:19:15;;;;;;;0.40;0.40;;;;;;;10.30;100.00;99982.59;4993988;28;20051;-63
2024/02/06 00:21:43;;;;;;;0.60;0.57;;;;;;;10.30;100.00;99985.38;4965493;28;20465;-63
2024/02/06 00:24:11;;;;;;;0.82;0.50;;;;;;;10.31;100.00;99975.09;4979835;28;20057;-63
2024/02/06 00:26:38;;;;;;;0.63;0.40;;;;;;;10.31;100.00;99980.63;4986896;28;20055;-63
2024/02/06 00:29:06;;;;;;;0.47;0.40;;;;;;;10.32;100.00;99969.22;4978382;28;20039;-63
2024/02/06 00:31:33;;;;;;;1.58;0.50;;;;;;;10.32;100.00;99972.00;4986713;28;20042;-63
2024/02/06 00:34:00;;;;;;;1.65;0.50;;;;;;;10.33;100.00;99973.56;4960602;28;20050;-63
2024/02/06 00:36:28;;;;;;;0.38;0.28;;;;;;;10.33;100.00;99979.13;4986878;28;20045;-63
2024/02/06 00:38:55;;;;;;;0.50;0.40;;;;;;;10.32;100.00;99973.94;4956579;28;20112;-63
2024/02/06 00:41:23;;;;;;;0.68;0.40;;;;;;;10.30;100.00;99982.59;4986819;28;20043;-63
2024/02/06 00:43:51;;;;;;;0.82;0.50;;;;;;;10.27;100.00;99963.94;4974547;28;20050;-63
2024/02/06 00:46:18;;;;;;;0.28;0.20;;;;;;;10.27;100.00;99965.94;4986140;28;20054;-63
2024/02/06 00:48:46;;;;;;;1.80;0.65;;;;;;;10.23;100.00;99954.78;4986807;28;20115;-63
2024/02/06 00:51:13;;;;;;;0.35;0.35;;;;;;;10.21;100.00;99959.88;4986697;28;20420;-63
2024/02/06 00:53:40;;;;;;;1.05;0.50;;;;;;;10.22;100.00;99966.19;4986776;28;20061;-63
2024/02/06 00:56:08;;;;;;;3.47;0.60;;;;;;;10.21;100.00;99953.53;4986405;28;20050;-62
2024/02/06 00:58:35;;;;;;;0.68;0.30;;;;;;;10.21;100.00;99937.75;4986209;28;20054;-63
2024/02/06 01:01:03;;;;;;;2.50;0.45;;;;;;;10.21;100.00;99937.75;4989625;28;20065;-63
2024/02/06 01:03:30;;;;;;;0.90;0.60;;;;;;;10.22;100.00;99933.81;5002833;28;20054;-63
2024/02/06 01:05:58;;;;;;;3.13;0.85;;;;;;;10.23;100.00;99929.09;5001542;28;20050;-63
2024/02/06 01:08:25;;;;;;;0.93;0.47;;;;;;;10.24;100.00;99925.97;5005016;28;20049;-63
2024/02/06 01:10:52;;;;;;;1.98;0.63;;;;;;;10.23;100.00;99916.06;5005879;28;20046;-63
2024/02/06 01:13:19;;;;;;;0.68;0.50;;;;;;;10.23;100.00;99901.41;5006109;28;20508;-63
2024/02/06 01:15:47;;;;;;;0.60;0.30;;;;;;;10.23;100.00;99885.63;5005256;28;20049;-63
2024/02/06 01:18:14;;;;;;;2.28;0.57;;;;;;;10.24;100.00;99898.31;5013006;28;20045;-63
2024/02/06 01:20:41;;;;;;;0.73;0.60;;;;;;;10.23;100.00;99880.09;5008478;28;20045;-63
2024/02/06 01:23:09;;;;;;;0.55;0.30;;;;;;;10.25;100.00;99888.81;4987899;28;20041;-63
2024/02/06 01:25:36;;;;;;;0.65;0.40;;;;;;;10.25;100.00;99882.50;5005821;28;20526;-63
2024/02/06 01:28:05;;;;;;;1.98;0.50;;;;;;;10.25;100.00;99883.28;5009088;28;20049;-63
2024/02/06 01:30:33;;;;;;;2.38;0.73;;;;;;;10.25;100.00;99869.47;5008001;28;20050;-63
2024/02/06 01:33:01;;;;;;;1.85;0.63;;;;;;;10.26;100.00;99873.84;4991940;28;20053;-63
2024/02/06 01:35:28;;;;;;;0.43;0.35;;;;;;;10.25;100.00;99869.47;5008974;28;20057;-63
2024/02/06 01:37:56;;;;;;;0.80;0.65;;;;;;;10.26;100.00;99856.44;4991440;28;20046;-63
2024/02/06 01:40:23;;;;;;;3.00;1.98;;;;;;;10.26;100.00;99861.97;5007863;28;20049;-63
2024/02/06 01:42:51;;;;;;;1.73;0.60;;;;;;;10.26;100.00;99853.66;4992058;28;20507;-63
2024/02/06 01:45:18;;;;;;;1.52;0.30;;;;;;;10.26;100.00;99857.25;5007885;28;20100;-64
2024/02/06 01:47:47;;;;;;;2.13;1.33;;;;;;;10.26;100.00;99848.94;5009350;28;20042;-63
2024/02/06 01:50:14;;;;;;;1.25;0.20;;;;;;;10.26;100.00;99837.88;4995964;28;20061;-63
2024/02/06 01:52:42;;;;;;;0.45;0.45;;;;;;;10.26;100.00;99837.06;4995358;28;20046;-63
2024/02/06 01:55:10;;;;;;;0.30;0.30;;;;;;;10.25;100.00;99822.44;4991432;28;20045;-63
2024/02/06 01:57:37;;;;;;;0.90;0.50;;;;;;;10.26;100.00;99826.81;5008354;28;20057;-63
2024/02/06 02:00:07;;;;;;;1.73;0.55;;;;;;;10.27;100.00;99820.09;5008859;28;20138;-63
2024/02/06 02:02:35;;;;;;;0.20;0.20;;;;;;;10.26;100.00;99798.34;5008184;28;20066;-63
2024/02/06 02:05:02;;;;;;;2.83;0.40;;;;;;;10.27;100.00;99808.25;4990745;28;20049;-63
2024/02/06 02:07:30;;;;;;;1.88;0.32;;;;;;;10.27;100.00;99806.25;4995418;28;20054;-63
2024/02/06 02:09:59;;;;;;;0.45;0.30;;;;;;;10.27;100.00;99797.19;5008055;28;20042;-63
2024/02/06 02:12:26;;;;;;;3.25;0.82;;;;;;;10.27;100.00;99797.97;5008173;28;20061;-63
2024/02/06 02:14:54;;;;;;;0.95;0.25;;;;;;;10.27;100.00;99786.91;5008675;28;20133;-63
2024/02/06 02:17:21;;;;;;;0.47;0.40;;;;;;;10.28;100.00;99798.78;5007773;28;20058;-63
2024/02/06 02:19:48;;;;;;;1.33;0.20;;;;;;;10.29;100.00;99800.38;4998130;28;20519;-63
2024/02/06 02:22:16;;;;;;;0.50;0.32;;;;;;;10.29;100.00;99794.84;5008146;28;20046;-63
2024/02/06 02:24:43;;;;;;;0.63;0.22;;;;;;;10.28;100.00;99794.03;5007980;28;20050;-63
2024/02/06 02:27:11;;;;;;;1.45;0.13;;;;;;;10.26;100.00;99793.63;4994887;28;20088;-63
2024/02/06 02:29:40;;;;;;;0.98;0.38;;;;;;;10.26;100.00;99801.91;5008177;28;20050;-63
2024/02/06 02:32:09;;;;;;;0.43;0.30;;;;;;;10.25;100.00;99803.06;5008426;28;20056;-64
2024/02/06 02:34:36;;;;;;;0.40;0.20;;;;;;;10.23;100.00;99780.50;4990778;28;20053;-63
2024/02/06 02:37:04;;;;;;;0.30;0.20;;;;;;;10.21;100.00;99793.13;5008297;28;20046;-63
2024/02/06 02:39:31;;;;;;;0.40;0.13;;;;;;;10.17;100.00;99801.31;5006593;28;20412;-63
2024/02/06 02:42:00;;;;;;;1.08;0.30;;;;;;;10.14;100.00;99779.16;5008276;28;20045;-61
2024/02/06 02:44:27;;;;;;;0.75;0.20;;;;;;;10.10;100.00;99784.56;5008158;28;20259;-62
2024/02/06 02:46:55;;;;;;;1.23;0.50;;;;;;;10.07;100.00;99782.53;4995335;28;20060;-62
2024/02/06 02:49:22;;;;;;;1.92;0.32;;;;;;;10.03;100.00;99776.16;4990405;28;20060;-63
2024/02/06 02:51:50;;;;;;;2.60;0.80;;;;;;;10.01;100.00;99772.94;5007740;28;20041;-61
2024/02/06 02:54:18;;;;;;;4.13;0.98;;;;;;;9.98;100.00;99762.59;5007467;28;20049;-62
2024/02/06 02:56:45;;;;;;;2.85;0.85;;;;;;;9.98;100.00;99768.13;5007750;28;20111;-62
2024/02/06 02:59:12;;;;;;;5.30;1.40;;;;;;;9.97;100.00;99752.72;5007217;28;20068;-62
2024/02/06 03:01:40;;;;;;;11.70;1.67;;;;;;;9.97;100.00;99752.72;5073661;22;20463;-62
2024/02/06 03:04:07;;;;;;;8.40;1.80;;;;;;;9.98;100.00;99734.16;5008311;28;20046;-62
2024/02/06 03:06:36;;;;;;;9.63;2.00;;;;;;;9.98;100.00;99739.69;4997092;28;20057;-63
2024/02/06 03:09:03;;;;;;;9.73;2.25;;;;;;;9.99;100.00;99728.25;4999237;28;20451;-62
2024/02/06 03:11:30;;;;;;;12.48;2.88;;;;;;;10.02;100.00;99716.47;5007711;28;20046;-62
2024/02/06 03:13:58;;;;;;;14.38;2.30;;;;;;;10.03;100.00;99726.38;5007369;28;20046;-62
2024/02/06 03:16:25;;;;;;;12.27;2.47;;;;;;;10.05;100.00;99706.63;5007397;28;20062;-62
2024/02/06 03:18:53;;;;;;;9.85;2.55;;;;;;;10.06;100.00;99691.66;5007019;28;20057;-63
2024/02/06 03:21:20;;;;;;;20.67;4.70;;;;;;;10.07;100.00;99688.50;5007003;28;20050;-63
2024/02/06 03:23:48;;;;;;;12.32;2.50;;;;;;;10.08;100.00;99673.53;5007262;28;20499;-62
2024/02/06 03:26:15;;;;;;;14.50;2.72;;;;;;;10.10;100.00;99678.69;5007294;28;20053;-64
2024/02/06 03:28:43;;;;;;;9.93;4.22;;;;;;;10.12;100.00;99681.88;5006649;28;20057;-63
2024/02/06 03:31:10;;;;;;;12.50;3.47;;;;;;;10.13;100.00;99670.50;5007353;28;20049;-62
2024/02/06 03:33:37;;;;;;;10.70;3.97;;;;;;;10.15;100.00;99678.41;5007258;28;20060;-62
2024/02/06 03:36:05;;;;;;;13.60;2.80;;;;;;;10.15;100.00;99687.50;5006874;28;20057;-63
2024/02/06 03:38:33;;;;;;;10.25;2.83;;;;;;;10.18;100.00;99672.94;5006640;28;20076;-63
2024/02/06 03:41:00;;;;;;;12.68;3.22;;;;;;;10.18;100.00;99667.41;5006896;28;20060;-63
2024/02/06 03:43:28;;;;;;;12.38;3.33;;;;;;;10.20;100.00;99670.59;5006921;28;20058;-62
2024/02/06 03:45:55;;;;;;;19.17;4.25;;;;;;;10.21;100.00;99660.34;5006323;28;20081;-62
2024/02/06 03:48:24;;;;;;;13.85;4.22;;;;;;;10.23;100.00;99647.75;4996004;28;20099;-63
2024/02/06 03:50:51;;;;;;;14.07;3.42;;;;;;;10.23;100.00;99652.47;5006622;28;20061;-63
2024/02/06 03:53:19;;;;;;;21.23;4.50;;;;;;;10.23;100.00;99664.34;5006787;28;20061;-63
2024/02/06 03:55:46;;;;;;;17.98;3.03;;;;;;;10.24;100.00;99665.94;5006968;28;20072;-63
2024/02/06 03:58:14;;;;;;;12.30;2.55;;;;;;;10.24;100.00;99660.41;5006146;28;20049;-63
2024/02/06 04:00:43;;;;;;;13.23;3.83;;;;;;;10.23;100.00;99656.03;5005101;28;20408;-63
2024/02/06 04:03:10;;;;;;;16.98;3.10;;;;;;;10.23;100.00;99646.94;5006830;28;20061;-63
2024/02/06 04:05:38;;;;;;;14.13;2.80;;;;;;;10.21;100.00;99627.97;5007057;28;20049;-63
2024/02/06 04:08:06;;;;;;;23.00;4.25;;;;;;;10.21;100.00;99640.97;5006454;28;20117;-63
2024/02/06 04:10:33;;;;;;;22.73;3.53;;;;;;;10.20;100.00;99631.06;4993724;28;20046;-63
2024/02/06 04:13:01;;;;;;;19.90;2.67;;;;;;;10.18;100.00;99617.63;5006801;28;20054;-63
2024/02/06 04:15:28;;;;;;;14.23;2.28;;;;;;;10.17;100.00;99632.63;5006338;28;20068;-63
2024/02/06 04:17:56;;;;;;;31.48;4.70;;;;;;;10.16;100.00;99636.56;4996115;28;20057;-63
2024/02/06 04:20:23;;;;;;;13.02;2.75;;;;;;;10.15;100.00;99631.38;5006569;28;20060;-63
2024/02/06 04:22:51;;;;;;;14.30;2.42;;;;;;;10.14;100.00;99622.28;5006358;28;20439;-64
2024/02/06 04:25:18;;;;;;;14.88;3.70;;;;;;;10.14;100.00;99618.75;5006130;28;20084;-64
2024/02/06 04:27:46;;;;;;;9.35;2.53;;;;;;;10.12;100.00;99608.03;5006820;28;20519;-64
2024/02/06 04:30:14;;;;;;;17.98;3.47;;;;;;;10.11;100.00;99611.94;5005775;28;20054;-64
2024/02/06 04:32:42;;;;;;;10.23;2.30;;;;;;;10.08;100.00;99609.13;5006779;28;20057;-63
2024/02/06 04:35:09;;;;;;;11.73;3.10;;;;;;;10.07;100.00;99610.28;5004666;28;20053;-64
2024/02/06 04:37:37;;;;;;;17.90;3.28;;;;;;;10.02;100.00;99608.63;5006184;28;20046;-64
2024/02/06 04:40:06;;;;;;;15.80;3.10;;;;;;;9.99;100.00;99614.88;5006649;28;20045;-64
2024/02/06 04:42:33;;;;;;;17.35;5.55;;;;;;;9.94;100.00;99598.59;5006274;28;20058;-64
2024/02/06 04:45:02;;;;;;;15.75;3.95;;;;;;;9.89;100.00;99593.38;5005829;28;20042;-63
2024/02/06 04:47:29;;;;;;;22.60;5.40;;;;;;;9.86;100.00;99605.19;5015673;28;20054;-62
2024/02/06 04:49:57;;;;;;;17.95;3.08;;;;;;;9.82;100.00;99588.53;5008158;28;20046;-62
2024/02/06 04:52:26;;;;;;;16.02;3.08;;;;;;;9.79;100.00;99592.03;5006587;28;20069;-62
2024/02/06 04:54:53;;;;;;;14.45;2.63;;;;;;;9.77;100.00;99591.59;5006294;28;20050;-61
2024/02/06 04:57:23;;;;;;;12.30;2.55;;;;;;;9.74;100.00;99581.28;5006583;28;20050;-61
2024/02/06 04:59:50;;;;;;;14.52;3.45;;;;;;;9.73;100.00;99595.47;5006274;28;20533;-61
2024/02/06 05:02:18;;;;;;;11.68;2.70;;;;;;;9.72;100.00;99591.09;5008656;28;20066;-61
2024/02/06 05:04:49;;;;;;;17.98;4.80;;;;;;;9.71;100.00;99592.28;4993251;28;20042;-61
2024/02/06 05:07:17;;;;;;;24.10;4.50;;;;;;;9.70;100.00;99579.63;5012213;28;20057;-61
2024/02/06 05:09:45;;;;;;;16.02;4.45;;;;;;;9.69;100.00;99575.25;5010764;28;20052;-61
2024/02/06 05:12:12;;;;;;;18.55;4.20;;;;;;;9.69;100.00;99572.47;5010145;28;20061;-62
2024/02/06 05:14:40;;;;;;;14.27;3.17;;;;;;;9.69;100.00;99566.94;4998069;28;20054;-61
2024/02/06 05:17:08;;;;;;;12.25;3.22;;;;;;;9.69;100.00;99578.81;5010268;28;20052;-61
2024/02/06 05:19:40;;;;;;;13.80;5.07;;;;;;;9.70;100.00;99568.56;5009750;28;20076;-61
2024/02/06 05:22:08;;;;;;;14.77;3.35;;;;;;;9.71;100.00;99570.97;5008536;28;20065;-61
2024/02/06 05:24:36;;;;;;;24.38;3.78;;;;;;;9.72;100.00;99571.75;5010041;28;20239;-62
2024/02/06 05:27:03;;;;;;;17.80;3.50;;;;;;;9.73;100.00;99576.13;5010093;28;20057;-62
2024/02/06 05:29:33;;;;;;;14.57;3.63;;;;;;;9.74;100.00;99558.38;5010599;28;20050;-61
2024/02/06 05:32:00;;;;;;;21.55;3.67;;;;;;;9.75;100.00;99565.50;5009539;28;20097;-62
2024/02/06 05:34:28;;;;;;;16.30;5.43;;;;;;;9.77;100.00;99558.44;5009680;28;20038;-62
2024/02/06 05:36:55;;;;;;;18.92;3.28;;;;;;;9.77;100.00;99565.91;5009395;28;20042;-62
2024/02/06 05:39:23;;;;;;;19.25;3.65;;;;;;;9.78;100.00;99559.22;5010401;28;20053;-62
2024/02/06 05:41:50;;;;;;;15.98;3.08;;;;;;;9.79;100.00;99561.63;5008866;28;20050;-62
2024/02/06 05:44:18;;;;;;;15.38;3.78;;;;;;;9.81;100.00;99544.69;5009993;28;20045;-62
2024/02/06 05:46:45;;;;;;;15.00;3.25;;;;;;;9.80;100.00;99557.69;5009130;28;20060;-62
2024/02/06 05:49:13;;;;;;;21.90;4.85;;;;;;;9.80;100.00;99552.16;5009850;28;20054;-61
2024/02/06 05:51:40;;;;;;;13.65;3.78;;;;;;;9.80;100.00;99540.31;5009558;28;20049;-62
2024/02/06 05:54:07;;;;;;;26.40;4.57;;;;;;;9.79;100.00;99549.78;5009656;28;20054;-61
2024/02/06 05:56:36;;;;;;;14.73;2.80;;;;;;;9.78;100.00;99532.41;5009516;28;20049;-61
2024/02/06 05:59:03;;;;;;;18.85;4.43;;;;;;;9.77;100.00;99530.78;5010010;28;20054;-61
2024/02/06 06:01:31;;;;;;;22.10;4.45;;;;;;;9.78;100.00;99531.59;5009371;28;20058;-61
2024/02/06 06:03:59;;;;;;;19.13;4.65;;;;;;;9.78;100.00;99529.63;5009258;28;20100;-61
2024/02/06 06:06:27;;;;;;;12.18;4.13;;;;;;;9.79;100.00;99528.44;5010333;28;20077;-64
2024/02/06 06:08:55;;;;;;;24.27;4.22;;;;;;;9.78;100.00;99534.34;5008833;28;20068;-64
2024/02/06 06:11:22;;;;;;;17.50;4.10;;;;;;;9.78;100.00;99523.28;5009154;28;20046;-62
2024/02/06 06:13:50;;;;;;;16.52;3.90;;;;;;;9.79;100.00;99533.19;5008537;28;20059;-62
2024/02/06 06:16:17;;;;;;;21.33;4.82;;;;;;;9.80;100.00;99540.31;5007982;28;20135;-63
2024/02/06 06:18:45;;;;;;;23.48;4.38;;;;;;;9.80;100.00;99529.25;5008427;28;20054;-63
2024/02/06 06:21:13;;;;;;;22.25;5.47;;;;;;;9.82;100.00;99526.13;5008836;28;20093;-62
2024/02/06 06:23:40;;;;;;;19.77;5.00;;;;;;;9.84;100.00;99518.25;5009069;28;20408;-63
2024/02/06 06:26:08;;;;;;;12.38;3.30;;;;;;;9.84;100.00;99529.31;5009140;28;20045;-62
2024/02/06 06:28:35;;;;;;;16.60;4.00;;;;;;;9.84;100.00;99519.06;5008519;28;20084;-62
2024/02/06 06:31:05;;;;;;;18.05;3.10;;;;;;;9.86;100.00;99526.97;5008668;28;20038;-62
2024/02/06 06:33:33;;;;;;;15.43;3.63;;;;;;;9.88;100.00;99535.69;5008397;28;20053;-62
2024/02/06 06:36:00;;;;;;;11.25;2.40;;;;;;;9.89;100.00;99535.34;5009098;28;20050;-61
2024/02/06 06:38:27;;;;;;;16.45;3.75;;;;;;;9.91;100.00;99543.25;5007944;28;20058;-61
2024/02/06 06:40:55;;;;;;;10.82;2.60;;;;;;;9.93;100.00;99538.94;5008486;28;20056;-61
2024/02/06 06:43:22;;;;;;;13.30;2.78;;;;;;;9.95;100.00;99533.88;5008364;28;20061;-62
2024/02/06 06:45:54;;;;;;;12.77;3.15;;;;;;;9.96;100.00;99543.72;5008780;28;20050;-61
2024/02/06 06:48:22;;;;;;;9.57;2.28;;;;;;;9.99;100.00;99542.19;5008011;28;20045;-62
2024/02/06 06:50:49;;;;;;;17.25;2.72;;;;;;;10.01;100.00;99540.66;5008208;28;20053;-62
2024/02/06 06:53:17;;;;;;;7.80;1.70;;;;;;;10.03;100.00;99543.88;5008353;28;20045;-62
2024/02/06 06:55:44;;;;;;;11.43;3.28;;;;;;;10.05;100.00;99547.06;5008391;28;20056;-62
2024/02/06 06:58:11;;;;;;;9.68;2.38;;;;;;;10.07;100.00;99547.47;5007777;28;20073;-62
2024/02/06 07:00:39;;;;;;;11.45;5.43;;;;;;;10.08;100.00;99548.28;5007879;28;20089;-62
2024/02/06 07:03:07;;;;;;;12.85;3.00;;;;;;;10.09;100.00;99547.91;5008474;28;20144;-61
2024/02/06 07:05:34;;;;;;;11.88;2.72;;;;;;;10.09;100.00;99542.38;5009194;28;20058;-62
2024/02/06 07:08:03;;;;;;;16.50;3.63;;;;;;;10.09;100.00;99547.09;5009219;28;20053;-64
2024/02/06 07:10:31;;;;;;;10.70;4.10;;;;;;;10.09;100.00;99545.13;5007719;28;20595;-64
2024/02/06 07:12:58;;;;;;;7.15;2.50;;;;;;;10.08;100.00;99551.84;4995410;28;20042;-64
2024/02/06 07:15:26;;;;;;;9.40;2.25;;;;;;;10.08;100.00;99549.09;5007827;28;20046;-65
2024/02/06 07:17:53;;;;;;;8.52;2.88;;;;;;;10.08;100.00;99554.63;5008197;28;20046;-65
2024/02/06 07:20:21;;;;;;;8.88;2.83;;;;;;;10.09;100.00;99552.63;5007520;28;20438;-65
2024/02/06 07:22:48;;;;;;;4.82;1.52;;;;;;;10.09;100.00;99572.78;5008002;28;20057;-65
2024/02/06 07:25:15;;;;;;;9.20;3.45;;;;;;;10.08;100.00;99557.38;5007499;28;20054;-65
2024/02/06 07:27:43;;;;;;;9.05;2.97;;;;;;;10.10;100.00;99555.03;5007196;28;20049;-65
2024/02/06 07:30:10;;;;;;;7.63;1.30;;;;;;;10.08;100.00;99546.31;5007438;28;20126;-64
2024/02/06 07:32:49;;;;;;;6.68;2.10;;;;;;;10.09;100.00;99539.59;5006321;28;20041;-64
2024/02/06 07:35:16;;;;;;;8.07;2.13;;;;;;;10.08;100.00;99549.09;5007398;28;20511;-64
2024/02/06 07:37:44;;;;;;;3.40;1.30;;;;;;;10.10;100.00;99559.75;5007435;28;20054;-64
2024/02/06 07:40:11;;;;;;;6.28;1.63;;;;;;;10.11;100.00;99548.31;5007295;28;20057;-64
2024/02/06 07:42:39;;;;;;;7.60;1.75;;;;;;;10.11;100.00;99550.31;5007252;28;20045;-64
2024/02/06 07:45:06;;;;;;;7.45;1.50;;;;;;;10.12;100.00;99546.34;5007982;28;20054;-64
2024/02/06 07:47:34;;;;;;;8.05;1.40;;;;;;;10.12;100.00;99555.50;5008015;28;20050;-62
2024/02/06 07:50:05;;;;;;;9.38;1.60;;;;;;;10.14;100.00;99555.91;5008030;28;20475;-62
2024/02/06 07:52:32;;;;;;;4.35;1.77;;;;;;;10.14;100.00;99544.84;4990054;28;20052;-62
2024/02/06 07:55:00;;;;;;;7.22;1.35;;;;;;;10.16;100.00;99537.00;5006834;28;20042;-62
2024/02/06 07:57:27;;;;;;;6.05;1.67;;;;;;;10.17;100.00;99538.56;5003421;28;20403;-62
2024/02/06 07:59:54;;;;;;;6.78;1.50;;;;;;;10.18;100.00;99537.41;5006911;28;20045;-63
2024/02/06 08:02:22;;;;;;;5.22;1.67;;;;;;;10.18;100.00;99523.59;5006906;28;20050;-64
2024/02/06 08:04:52;;;;;;;5.82;1.40;;;;;;;10.20;100.00;99523.19;5006848;28;20052;-63
2024/02/06 08:07:20;;;;;;;6.15;1.50;;;;;;;10.20;100.00;99529.53;5007510;28;20046;-64
2024/02/06 08:09:48;;;;;;;10.98;2.08;;;;;;;10.22;100.00;99529.97;4998418;28;20050;-62
2024/02/06 08:12:16;;;;;;;5.97;1.75;;;;;;;10.24;100.00;99516.56;4999330;28;20128;-62
2024/02/06 08:14:44;;;;;;;5.13;1.10;;;;;;;10.23;100.00;99514.16;5006966;28;20042;-62
2024/02/06 08:17:11;;;;;;;6.15;2.15;;;;;;;10.25;100.00;99511.81;5005799;28;20052;-59
2024/02/06 08:19:39;;;;;;;6.70;1.60;;;;;;;10.25;100.00;99512.63;5006661;28;20053;-61
2024/02/06 08:22:07;;;;;;;7.53;2.00;;;;;;;10.26;100.00;99518.97;5006339;28;20042;-63
2024/02/06 08:24:34;;;;;;;5.20;1.77;;;;;;;10.27;100.00;99532.41;5000553;28;20042;-63
2024/02/06 08:27:04;;;;;;;8.27;3.35;;;;;;;10.26;100.00;99536.34;5001260;28;20503;-63
2024/02/06 08:29:31;;;;;;;8.18;2.17;;;;;;;10.29;100.00;99562.47;4998864;28;20046;-63
2024/02/06 08:31:58;;;;;;;5.75;1.80;;;;;;;10.31;100.00;99588.59;5006116;28;20061;-62
2024/02/06 08:34:26;;;;;;;11.68;2.67;;;;;;;10.31;100.00;99599.66;5006711;28;20409;-64
2024/02/06 08:36:53;;;;;;;6.05;2.25;;;;;;;10.31;100.00;99609.91;5005983;28;20065;-65
2024/02/06 08:39:20;;;;;;;3.33;0.57;;;;;;;10.21;100.00;99597.53;5009682;28;20077;-65
2024/02/06 08:41:48;;;;;;;4.18;0.80;;;;;;;10.14;100.00;99599.38;5010392;28;20057;-65
2024/02/06 08:44:16;;;;;;;1.02;0.50;;;;;;;10.09;100.00;99608.75;5010362;28;20054;-64
2024/02/06 08:46:43;;;;;;;0.28;0.20;;;;;;;10.01;100.00;99608.97;5010398;28;20041;-65
2024/02/06 08:49:10;;;;;;;0.10;0.10;;;;;;;9.86;100.00;99594.13;5010462;28;20046;-64
2024/02/06 08:51:39;;;;;;;0.63;0.20;;;;;;;9.69;100.00;99611.16;5008668;28;20053;-64
2024/02/06 08:54:06;;;;;;;1.67;0.10;;;;;;;9.56;100.00;99612.50;5010794;28;20053;-64
2024/02/06 08:56:33;;;;;;;0.08;0.00;;;;;;;9.47;100.00;99609.19;5005754;28;20046;-64
2024/02/06 08:59:01;;;;;;;1.75;0.63;;;;;;;9.41;100.00;99589.34;5002201;28;20077;-63
2024/02/06 09:01:29;;;;;;;1.10;0.25;;;;;;;9.34;100.00;99604.97;5010265;28;20050;-64
2024/02/06 09:03:57;;;;;;;0.47;0.30;;;;;;;9.29;100.00;99605.28;5010098;28;20702;-65
2024/02/06 09:06:32;;;;;;;0.70;0.50;;;;;;;9.21;100.00;99609.06;5012444;28;20450;-64
2024/02/06 09:08:59;;;;;;;0.20;0.20;;;;;;;9.11;100.00;99625.03;5010164;28;20053;-65
2024/02/06 09:11:27;;;;;;;0.35;0.10;;;;;;;9.03;100.00;99623.28;5010408;28;20369;-64
2024/02/06 09:13:55;;;;;;;0.15;0.10;;;;;;;8.93;100.00;99636.84;5010193;28;20052;-65
2024/02/06 09:16:23;;;;;;;0.60;0.10;;;;;;;8.83;100.00;99649.25;5010177;28;20054;-64
2024/02/06 09:18:51;;;;;;;0.03;0.03;;;;;;;8.76;100.00;99654.63;5009620;28;20073;-65
2024/02/06 09:21:19;;;;;;;0.00;0.00;;;;;;;8.66;100.00;99671.72;5008196;28;20054;-64
2024/02/06 09:23:46;;;;;;;1.25;0.00;;;;;;;8.60;100.00;99675.94;5008968;28;20049;-64
2024/02/06 09:26:15;;;;;;;0.13;0.10;;;;;;;8.53;100.00;99679.31;5009758;28;20057;-64
2024/02/06 09:28:43;;;;;;;0.00;0.00;;;;;;;8.49;100.00;99674.88;5007619;28;20046;-65
2024/02/06 09:31:11;;;;;;;0.13;0.10;;;;;;;8.45;100.00;99677.53;5010150;28;20399;-64
2024/02/06 09:33:39;;;;;;;0.00;0.00;;;;;;;8.40;100.00;99677.00;5009026;28;20057;-64
2024/02/06 09:36:07;;;;;;;0.10;0.00;;;;;;;8.32;100.00;99680.72;5010158;28;20404;-64
2024/02/06 09:38:34;;;;;;;0.70;0.10;;;;;;;8.26;100.00;99682.91;5009353;28;20067;-64
2024/02/06 09:41:02;;;;;;;0.55;0.08;;;;;;;8.27;100.00;99678.25;5009359;28;20038;-64
2024/02/06 09:43:30;;;;;;;0.47;0.15;;;;;;;8.23;100.00;99686.41;5007943;28;20060;-64
2024/02/06 09:46:00;;;;;;;0.85;0.10;;;;;;;8.18;100.00;99694.16;5009505;28;20053;-64
2024/02/06 09:48:27;;;;;;;0.20;0.10;;;;;;;8.21;100.00;99701.69;5008886;28;20076;-64
2024/02/06 09:50:55;;;;;;;1.40;0.10;;;;;;;8.23;100.00;99693.88;5009430;28;20049;-64
2024/02/06 09:53:31;;;;;;;0.10;0.00;;;;;;;8.18;100.00;99707.94;5009395;28;20072;-64
2024/02/06 09:56:00;;;;;;;1.05;0.10;;;;;;;8.15;100.00;99714.97;5007195;28;20058;-66
2024/02/06 09:58:28;;;;;;;0.57;0.20;;;;;;;8.10;100.00;99717.16;4996886;28;20058;-64
2024/02/06 10:00:57;;;;;;;1.08;0.20;;;;;;;8.04;100.00;99730.41;5008213;28;20061;-64
2024/02/06 10:03:31;;;;;;;1.30;0.28;;;;;;;8.01;100.00;99724.78;5008911;28;20061;-64
2024/02/06 10:05:59;;;;;;;1.38;0.10;;;;;;;7.99;100.00;99723.16;4993548;28;20049;-64
2024/02/06 10:08:27;;;;;;;0.32;0.10;;;;;;;8.03;100.00;99753.59;5008287;28;20131;-64
2024/02/06 10:10:57;;;;;;;1.38;0.20;;;;;;;8.05;100.00;99761.53;5006907;28;20740;-64
2024/02/06 10:13:25;;;;;;;1.55;0.20;;;;;;;8.06;100.00;99763.94;5008980;28;20407;-64
2024/02/06 10:15:53;;;;;;;1.42;0.30;;;;;;;8.09;100.00;99754.16;5008842;28;20042;-64
2024/02/06 10:18:21;;;;;;;1.45;0.20;;;;;;;8.12;100.00;99756.19;4997628;28;20416;-64
2024/02/06 10:20:49;;;;;;;1.60;0.13;;;;;;;8.12;100.00;99778.25;5006287;28;20046;-63
2024/02/06 10:23:18;;;;;;;1.85;0.28;;;;;;;8.11;100.00;99771.13;5005804;28;20050;-63
2024/02/06 10:25:47;;;;;;;1.02;0.30;;;;;;;8.12;100.00;99772.75;5008399;28;20042;-63
2024/02/06 10:28:23;;;;;;;1.50;0.20;;;;;;;8.14;100.00;99779.50;5008887;28;20060;-62
2024/02/06 10:30:51;;;;;;;2.28;0.35;;;;;;;8.17;100.00;99778.81;4996963;28;20399;-63
2024/02/06 10:33:19;;;;;;;2.05;0.20;;;;;;;8.17;100.00;99783.50;5008750;28;20541;-63
2024/02/06 10:35:48;;;;;;;1.20;0.20;;;;;;;8.18;100.00;99793.41;5008346;28;20053;-63
2024/02/06 10:38:17;;;;;;;1.10;0.30;;;;;;;8.18;100.00;99796.94;5007020;28;20069;-63
2024/02/06 10:40:45;;;;;;;2.47;0.52;;;;;;;8.24;100.00;99794.72;5008511;28;20056;-64
2024/02/06 10:43:14;;;;;;;10.57;1.50;;;;;;;8.26;100.00;99792.44;4994882;28;20065;-63
2024/02/06 10:45:55;;;;;;;0.90;0.43;;;;;;;8.27;100.00;99800.38;5009035;28;20199;-63
2024/02/06 10:48:22;;;;;;;0.73;0.40;;;;;;;8.29;100.00;99808.28;5008200;28;20041;-63
2024/02/06 10:50:58;;;;;;;1.45;0.73;;;;;;;8.33;100.00;99793.47;5007555;28;20065;-63
2024/02/06 10:53:27;;;;;;;1.65;0.57;;;;;;;8.33;100.00;99800.94;4995043;28;20060;-63
2024/02/06 10:56:04;;;;;;;4.00;0.73;;;;;;;8.36;100.00;99814.81;5007880;28;20463;-63
2024/02/06 10:58:39;;;;;;;1.90;0.50;;;;;;;8.34;100.00;99819.09;5007078;28;20407;-63
2024/02/06 11:01:09;;;;;;;0.70;0.50;;;;;;;8.36;100.00;99820.34;5007930;28;20065;-63
2024/02/06 11:03:53;;;;;;;5.13;0.85;;;;;;;8.34;100.00;99821.84;5007718;28;20057;-62
2024/02/06 11:06:26;;;;;;;1.25;0.70;;;;;;;8.37;100.00;99832.94;5009575;28;20053;-63
2024/02/06 11:08:58;;;;;;;6.43;1.23;;;;;;;8.38;100.00;99828.25;5007485;28;20060;-62
2024/02/06 11:11:25;;;;;;;2.15;1.13;;;;;;;8.36;100.00;99825.03;4994003;28;20054;-64
2024/02/06 11:13:56;;;;;;;3.15;1.10;;;;;;;8.34;100.00;99830.91;5006435;28;20054;-63
2024/02/06 11:16:25;;;;;;;2.42;1.15;;;;;;;8.32;100.00;99824.13;5008090;28;20153;-63
2024/02/06 11:19:08;;;;;;;5.35;0.75;;;;;;;8.27;100.00;99818.88;5006225;28;20059;-62
2024/02/06 11:21:42;;;;;;;;;;;;;;;8.18;100.00;99840.28;5003517;28;20056;-63
2024/02/06 11:24:10;;;;;;;4.60;0.75;;;;;;;8.14;100.00;99833.84;5006631;28;19921;-63
2024/02/06 11:26:39;;;;;;;4.85;0.80;;;;;;;8.11;100.00;99840.03;5007562;28;20061;-63
2024/02/06 11:29:08;;;;;;;2.67;0.77;;;;;;;8.09;100.00;99847.88;5007245;28;20825;-62
2024/02/06 11:31:37;;;;;;;4.00;0.90;;;;;;;8.05;100.00;99853.28;5006787;28;20081;-63